Time;durP1;ratioP1;P1;durP2;ratioP2;P2;SDS_P1;SDS_P2;PMS_P1;PMS_P2;Temp;Humidity;BMP_temperature;BMP_pressure;BME280_temperature;BME280_humidity;BME280_pressure;Samples;Min_cycle;Max_cycle;Signal;HPM_P1;HPM_P2
2021/11/08 00:04:48;;;;;;;55.40;49.97;;;;;;;7.02;100.00;102462.09;1905503;73;85082;-73
2021/11/08 00:10:12;;;;;;;53.90;48.33;;;;;;;6.91;100.00;102487.67;1872278;74;39646;-72
2021/11/08 00:15:45;;;;;;;54.37;49.37;;;;;;;6.86;100.00;102473.14;1902031;74;86553;-73
2021/11/08 00:21:05;;;;;;;52.00;47.40;;;;;;;6.92;100.00;102476.09;1881365;74;39403;-73
2021/11/08 00:26:29;;;;;;;51.40;46.90;;;;;;;6.67;100.00;102479.62;1913836;74;39610;-79
2021/11/08 00:31:54;;;;;;;52.53;48.27;;;;;;;6.88;100.00;102478.98;1947944;71;86625;-73
2021/11/08 00:37:18;;;;;;;53.00;48.70;;;;;;;7.07;100.00;102476.63;1916343;74;39728;-73
2021/11/08 00:42:43;;;;;;;50.03;46.10;;;;;;;6.74;100.00;102476.29;1902098;74;86291;-73
2021/11/08 00:48:08;;;;;;;51.67;47.47;;;;;;;6.83;100.00;102492.07;1918642;74;39814;-80
2021/11/08 00:53:35;;;;;;;51.57;47.37;;;;;;;6.84;100.00;102474.44;1913574;74;39479;-72
2021/11/08 00:59:00;;;;;;;49.50;45.63;;;;;;;6.98;100.00;102471.04;1866946;76;86386;-73
2021/11/08 01:04:26;;;;;;;50.57;46.33;;;;;;;6.89;100.00;102466.31;1887613;74;39659;-73
2021/11/08 01:09:51;;;;;;;50.60;46.80;;;;;;;6.86;100.00;102453.80;1903561;74;86184;-73
2021/11/08 01:15:16;;;;;;;50.13;45.93;;;;;;;6.80;100.00;102462.14;1880737;74;39568;-73
2021/11/08 01:20:46;;;;;;;51.00;46.90;;;;;;;6.89;100.00;102459.97;1901755;75;86074;-71
2021/11/08 01:26:08;;;;;;;49.87;45.87;;;;;;;6.90;100.00;102470.77;1918938;74;39520;-73
2021/11/08 01:31:33;;;;;;;48.93;45.10;;;;;;;7.06;100.00;102460.57;1913738;74;39647;-73
2021/11/08 01:36:59;;;;;;;48.80;44.93;;;;;;;7.03;100.00;102467.94;1903822;74;86640;-72
2021/11/08 01:42:25;;;;;;;47.33;43.63;;;;;;;6.91;100.00;102472.48;1914797;74;39682;-71
2021/11/08 01:48:20;;;;;;;49.87;45.83;;;;;;;7.01;100.00;102461.80;1892065;74;86501;-72
2021/11/08 01:53:46;;;;;;;49.27;45.60;;;;;;;6.44;100.00;102469.63;1904310;74;86512;-73
2021/11/08 01:59:10;;;;;;;51.37;47.17;;;;;;;6.27;100.00;102465.66;1918257;74;39566;-74
2021/11/08 02:04:34;;;;;;;52.20;47.93;;;;;;;6.17;100.00;102461.97;1913177;74;39593;-78
2021/11/08 02:09:59;;;;;;;49.07;45.17;;;;;;;6.08;100.00;102463.26;1903800;74;85691;-81
2021/11/08 02:15:24;;;;;;;49.00;44.90;;;;;;;6.15;100.00;102461.88;1915181;74;39538;-73
2021/11/08 02:20:49;;;;;;;47.43;43.87;;;;;;;5.91;100.00;102459.27;1903923;74;86373;-73
2021/11/08 02:26:16;;;;;;;48.33;44.40;;;;;;;5.78;100.00;102460.64;1917004;74;39631;-73
2021/11/08 02:31:41;;;;;;;47.30;43.33;;;;;;;5.93;100.00;102476.46;1901635;75;86814;-71
2021/11/08 02:37:06;;;;;;;49.13;45.03;;;;;;;5.87;100.00;102471.80;1919168;74;39589;-72
2021/11/08 02:42:31;;;;;;;46.97;43.43;;;;;;;5.83;100.00;102469.97;1846307;75;39737;-72
2021/11/08 02:48:00;;;;;;;48.80;44.87;;;;;;;5.89;100.00;102472.44;1889680;74;85820;-80
2021/11/08 02:53:26;;;;;;;47.43;43.63;;;;;;;5.77;100.00;102486.01;1914771;74;39617;-72
2021/11/08 02:58:51;;;;;;;48.20;44.60;;;;;;;5.68;100.00;102471.27;1903411;74;86402;-72
2021/11/08 03:04:22;;;;;;;48.90;44.90;;;;;;;5.49;100.00;102488.13;1916460;74;39525;-73
2021/11/08 03:12:39;;;;;;;48.27;44.37;;;;;;;5.64;100.00;102475.52;1915492;75;86236;-73
2021/11/08 03:18:08;;;;;;;46.00;42.17;;;;;;;5.30;100.00;102495.86;1886513;74;39669;-73
2021/11/08 03:23:33;;;;;;;48.00;44.17;;;;;;;5.67;100.00;102506.78;1910743;74;39572;-71
2021/11/08 03:28:58;;;;;;;48.43;44.23;;;;;;;5.70;100.00;102483.77;1764014;79;86370;-71
2021/11/08 03:34:23;;;;;;;52.13;47.57;;;;;;;5.27;100.00;102490.75;1915562;74;39546;-73
2021/11/08 03:39:49;;;;;;;48.93;45.13;;;;;;;5.35;100.00;102497.43;1905261;74;86397;-73
2021/11/08 03:45:13;;;;;;;49.40;45.00;;;;;;;5.37;100.00;102487.06;1917018;73;39569;-72
2021/11/08 03:50:39;;;;;;;48.07;44.27;;;;;;;5.10;100.00;102497.19;1901792;75;86335;-80
2021/11/08 03:56:07;;;;;;;49.13;45.20;;;;;;;5.34;100.00;102497.14;1919152;74;39544;-71
2021/11/08 04:01:35;;;;;;;47.97;44.20;;;;;;;5.11;100.00;102492.01;1913375;74;39584;-71
2021/11/08 04:07:01;;;;;;;47.17;43.10;;;;;;;5.03;100.00;102494.44;1785309;79;86456;-76
2021/11/08 04:12:27;;;;;;;46.03;42.03;;;;;;;5.12;100.00;102498.37;1914974;74;39621;-72
2021/11/08 04:17:53;;;;;;;46.10;41.87;;;;;;;5.13;100.00;102498.70;1777671;79;86223;-72
2021/11/08 04:23:22;;;;;;;48.47;44.20;;;;;;;5.12;100.00;102523.16;1913369;74;39521;-79
2021/11/08 04:28:52;;;;;;;49.30;45.17;;;;;;;4.90;100.00;102516.95;1903895;74;86427;-72
2021/11/08 04:34:19;;;;;;;45.67;42.10;;;;;;;4.93;100.00;102524.79;1874865;74;39517;-73
2021/11/08 04:40:10;;;;;;;45.23;41.50;;;;;;;5.03;100.00;102518.37;1880233;74;86142;-80
2021/11/08 04:51:18;;;;;;;47.60;43.63;;;;;;;4.96;100.00;102521.64;1917158;74;39524;-73
2021/11/08 04:57:11;;;;;;;46.30;42.60;;;;;;;5.17;100.00;102521.48;1902023;75;86150;-72
2021/11/08 05:25:30;;;;;;;47.07;43.03;;;;;;;5.02;100.00;102531.81;1872969;74;39667;-80
2021/11/08 05:30:53;;;;;;;46.10;42.27;;;;;;;5.15;100.00;102524.11;1825413;78;86381;-73
2021/11/08 05:36:17;;;;;;;46.20;42.30;;;;;;;4.98;100.00;102517.61;1879930;74;39518;-72
2021/11/08 05:41:42;;;;;;;45.57;41.77;;;;;;;5.09;100.00;102526.34;1901716;74;86418;-80
2021/11/08 05:47:07;;;;;;;46.73;42.87;;;;;;;5.01;100.00;102528.20;1918579;74;40620;-80
2021/11/08 05:52:32;;;;;;;48.13;43.97;;;;;;;4.91;100.00;102528.30;1873026;74;39632;-73
2021/11/08 05:58:06;;;;;;;47.30;43.47;;;;;;;5.03;100.00;102537.64;1785218;79;86312;-73
2021/11/08 06:49:25;;;;;;;46.83;42.90;;;;;;;4.70;100.00;102576.59;1915848;74;39641;-72
2021/11/08 06:54:51;;;;;;;48.70;44.67;;;;;;;4.77;100.00;102584.34;1905234;74;86439;-72
2021/11/08 07:00:18;;;;;;;48.37;44.47;;;;;;;4.73;100.00;102577.03;1916357;74;39468;-73
2021/11/08 07:05:48;;;;;;;48.87;45.17;;;;;;;4.95;100.00;102580.52;1936947;71;86208;-73
2021/11/08 07:11:13;;;;;;;48.93;45.03;;;;;;;4.82;100.00;102585.45;1917416;74;39705;-73
2021/11/08 07:16:38;;;;;;;48.50;44.20;;;;;;;4.93;100.00;102582.09;1902021;75;86134;-72
2021/11/08 07:22:03;;;;;;;47.47;43.43;;;;;;;4.94;100.00;102586.55;1902901;74;86471;-78
2021/11/08 07:27:26;;;;;;;46.73;42.80;;;;;;;4.88;100.00;102585.98;1914918;74;39573;-72
2021/11/08 07:32:50;;;;;;;45.70;41.83;;;;;;;4.85;100.00;102597.94;1903235;74;86243;-72
2021/11/08 07:38:15;;;;;;;49.03;44.90;;;;;;;5.05;100.00;102600.24;1916443;74;39605;-77
2021/11/08 07:43:40;;;;;;;44.87;41.27;;;;;;;5.30;100.00;102597.28;1902088;75;86252;-72
2021/11/08 07:49:05;;;;;;;47.70;43.30;;;;;;;5.39;100.00;102602.89;1919482;74;39495;-72
2021/11/08 07:54:31;;;;;;;47.00;43.10;;;;;;;5.57;100.00;102594.03;1914301;74;39494;-72
2021/11/08 07:59:56;;;;;;;45.90;41.73;;;;;;;5.72;100.00;102597.98;1777355;79;86602;-78
2021/11/08 08:05:21;;;;;;;47.17;42.70;;;;;;;5.89;100.00;102608.95;1873234;74;39513;-72
2021/11/08 08:10:49;;;;;;;46.30;42.07;;;;;;;6.07;100.00;102616.61;1905711;74;86849;-73
2021/11/08 08:16:16;;;;;;;47.80;43.93;;;;;;;6.28;100.00;102608.10;1917341;74;39504;-75
2021/11/08 08:21:43;;;;;;;46.23;42.17;;;;;;;6.32;100.00;102591.43;1902062;74;86350;-74
2021/11/08 08:27:07;;;;;;;47.27;42.90;;;;;;;6.49;100.00;102594.05;1918835;74;39453;-73
2021/11/08 08:32:31;;;;;;;48.40;44.27;;;;;;;6.54;100.00;102594.26;1913442;73;39598;-77
2021/11/08 08:37:57;;;;;;;48.20;43.93;;;;;;;6.77;100.00;102593.75;1777619;80;86444;-73
2021/11/08 08:43:21;;;;;;;49.13;44.70;;;;;;;6.91;100.00;102588.50;1916186;74;39654;-73
2021/11/08 08:48:45;;;;;;;47.43;43.40;;;;;;;7.13;100.00;102586.28;1905814;74;85957;-72
2021/11/08 08:54:11;;;;;;;50.60;46.70;;;;;;;7.20;100.00;102592.61;1918053;74;39793;-80
2021/11/08 08:59:36;;;;;;;50.13;45.83;;;;;;;7.34;100.00;102597.01;1871374;74;39662;-80
2021/11/08 09:05:00;;;;;;;49.47;45.23;;;;;;;7.44;100.00;102599.30;1785219;79;86452;-72
2021/11/08 09:10:28;;;;;;;49.00;45.00;;;;;;;7.60;100.00;102606.53;1914633;74;39545;-80
2021/11/08 09:15:56;;;;;;;51.87;47.60;;;;;;;7.75;100.00;102613.11;1825462;78;86446;-74
2021/11/08 09:21:22;;;;;;;51.40;47.03;;;;;;;7.79;100.00;102609.68;1915859;74;39646;-73
2021/11/08 09:26:49;;;;;;;53.90;49.27;;;;;;;8.15;100.00;102607.59;1907090;74;86576;-78
2021/11/08 09:32:14;;;;;;;52.00;47.70;;;;;;;8.29;100.00;102594.52;1916653;74;39512;-70
2021/11/08 09:37:43;;;;;;;52.10;47.90;;;;;;;8.41;100.00;102592.69;1902063;74;86740;-73
2021/11/08 09:43:06;;;;;;;51.27;47.07;;;;;;;8.51;100.00;102611.02;1886639;74;39578;-78
2021/11/08 09:48:51;;;;;;;51.97;47.70;;;;;;;8.47;100.00;102611.14;1916616;73;86154;-73
2021/11/08 09:54:17;;;;;;;50.13;45.83;;;;;;;8.53;100.00;102620.47;1916844;74;39493;-73
2021/11/08 09:59:43;;;;;;;54.07;49.40;;;;;;;8.62;100.00;102620.48;1902182;74;86407;-75
2021/11/08 10:05:10;;;;;;;52.67;48.37;;;;;;;8.77;100.00;102628.44;1918288;74;39695;-70
2021/11/08 10:10:35;;;;;;;52.53;48.17;;;;;;;8.83;100.00;102604.80;1913264;73;39610;-74
2021/11/08 10:16:05;;;;;;;50.47;46.27;;;;;;;9.16;100.00;102596.63;1902055;74;86472;-78
2021/11/08 10:21:32;;;;;;;51.03;47.00;;;;;;;9.48;100.00;102598.09;1873326;74;39624;-76
2021/11/08 10:26:58;;;;;;;51.17;46.87;;;;;;;9.56;100.00;102595.83;1947661;71;86406;-73
2021/11/08 10:32:24;;;;;;;51.63;47.47;;;;;;;9.21;100.00;102592.59;1915029;74;39507;-76
2021/11/08 10:37:49;;;;;;;51.07;46.17;;;;;;;9.21;100.00;102600.91;1903326;74;85423;-75
2021/11/08 10:43:13;;;;;;;51.60;47.60;;;;;;;9.36;100.00;102609.14;1917209;74;39503;-73
2021/11/08 10:48:49;;;;;;;52.17;47.43;;;;;;;9.50;100.00;102592.59;1903906;74;85852;-77
2021/11/08 10:54:17;;;;;;;49.07;45.33;;;;;;;9.79;100.00;102575.63;1890368;74;39536;-74
2021/11/08 10:59:44;;;;;;;51.97;47.57;;;;;;;10.21;100.00;102582.53;1871238;73;86906;-74
2021/11/08 11:05:17;;;;;;;57.70;53.03;;;;;;;10.02;100.00;102574.80;1918415;74;39498;-73
2021/11/08 11:10:53;;;;;;;50.30;46.07;;;;;;;10.18;100.00;102573.30;1902145;75;86136;-73
2021/11/08 11:16:31;;;;;;;50.10;45.70;;;;;;;10.35;100.00;102554.29;1916098;74;39649;-70
2021/11/08 11:22:01;;;;;;;49.07;44.90;;;;;;;10.74;100.00;102535.96;1764411;79;86247;-74
2021/11/08 11:27:35;;;;;;;52.00;47.43;;;;;;;10.88;100.00;102529.58;1864069;74;39577;-69
2021/11/08 11:33:11;;;;;;;51.70;47.40;;;;;;;11.07;100.00;102514.42;1918841;74;39595;-74
2021/11/08 11:38:40;;;;;;;52.60;48.37;;;;;;;11.00;100.00;102512.31;1834918;75;86322;-73
2021/11/08 11:44:06;;;;;;;50.90;46.77;;;;;;;11.10;100.00;102507.50;1893159;74;39621;-73
2021/11/08 11:49:33;;;;;;;49.63;45.67;;;;;;;11.17;100.00;102495.67;1873003;74;39577;-74
2021/11/08 11:54:57;;;;;;;46.93;42.93;;;;;;;11.32;100.00;102501.53;1943387;71;86363;-73
2021/11/08 12:00:24;;;;;;;42.33;38.87;;;;;;;11.78;100.00;102498.48;1915471;74;39492;-76
2021/11/08 12:05:54;;;;;;;45.73;42.03;;;;;;;11.73;100.00;102492.83;1905675;74;86225;-72
2021/11/08 12:11:15;;;;;;;44.97;41.17;;;;;;;11.94;100.00;102484.25;1917170;74;39424;-74
2021/11/08 12:16:57;;;;;;;41.03;37.40;;;;;;;12.10;100.00;102476.45;1891114;74;86305;-69
2021/11/08 12:19:29;;;;;;;36.10;33.30;;;;;;;12.40;100.00;102483.00;1835649;75;937979;-69
2021/11/08 12:24:59;;;;;;;33.83;31.10;;;;;;;12.33;100.00;102456.70;1890700;74;86253;-74
2021/11/08 12:30:34;;;;;;;34.23;31.73;;;;;;;12.38;100.00;102436.97;1914312;74;39548;-73
2021/11/08 12:36:02;;;;;;;33.70;31.27;;;;;;;12.54;100.00;102422.97;1777597;79;86274;-74
2021/11/08 12:41:32;;;;;;;34.97;32.57;;;;;;;12.57;100.00;102411.31;1915169;74;39703;-73
2021/11/08 12:46:59;;;;;;;33.57;31.57;;;;;;;12.79;100.00;102408.50;1947109;71;86315;-69
2021/11/08 12:52:31;;;;;;;33.80;31.50;;;;;;;12.77;100.00;102404.57;1915065;74;39410;-74
2021/11/08 12:58:01;;;;;;;35.97;33.60;;;;;;;12.80;100.00;102393.43;1853370;74;86057;-73
2021/11/08 13:03:35;;;;;;;40.57;37.60;;;;;;;12.88;100.00;102389.35;1915245;74;39650;-73
2021/11/08 13:09:14;;;;;;;37.40;34.83;;;;;;;13.01;100.00;102393.93;1761616;80;86501;-75
2021/11/08 13:14:40;;;;;;;38.60;35.80;;;;;;;13.07;100.00;102392.88;1901826;74;86601;-74
2021/11/08 13:20:13;;;;;;;39.70;36.60;;;;;;;13.08;100.00;102392.34;1917759;74;39491;-73
2021/11/08 13:25:42;;;;;;;39.57;36.67;;;;;;;12.91;100.00;102385.48;1901864;75;86486;-76
2021/11/08 13:31:15;;;;;;;40.43;37.53;;;;;;;12.90;100.00;102401.91;1881731;74;39488;-73
2021/11/08 13:36:42;;;;;;;42.20;39.20;;;;;;;12.93;100.00;102399.14;1902236;74;86224;-72
2021/11/08 13:42:07;;;;;;;43.87;40.83;;;;;;;12.90;100.00;102390.76;1918735;74;39422;-70
2021/11/08 13:47:41;;;;;;;43.47;40.37;;;;;;;12.97;100.00;102395.56;1913634;74;39691;-76
2021/11/08 13:53:10;;;;;;;40.27;37.23;;;;;;;12.83;100.00;102392.93;1918260;74;39487;-76
2021/11/08 13:58:37;;;;;;;39.30;36.13;;;;;;;12.78;100.00;102381.16;1871448;74;39590;-74
2021/11/08 14:04:04;;;;;;;39.73;36.93;;;;;;;12.73;100.00;102382.50;1889722;74;86541;-73
2021/11/08 14:09:29;;;;;;;40.47;37.57;;;;;;;12.76;100.00;102379.17;1914182;74;48826;-72
2021/11/08 14:14:57;;;;;;;40.03;36.90;;;;;;;12.83;100.00;102378.98;1836022;77;86435;-69
2021/11/08 14:20:23;;;;;;;42.17;39.17;;;;;;;12.96;100.00;102375.77;1872044;74;39674;-70
2021/11/08 14:25:46;;;;;;;39.50;36.40;;;;;;;12.86;100.00;102372.03;1891772;74;86436;-73
2021/11/08 14:31:25;;;;;;;42.83;39.87;;;;;;;12.89;100.00;102372.33;1918446;74;39596;-73
2021/11/08 14:36:52;;;;;;;41.37;38.37;;;;;;;12.80;100.00;102373.91;1890991;74;86487;-70
2021/11/08 14:42:19;;;;;;;42.93;39.73;;;;;;;12.71;100.00;102369.36;1916359;73;39504;-72
2021/11/08 14:47:42;;;;;;;41.93;38.47;;;;;;;12.61;100.00;102373.45;1901806;73;86675;-75
2021/11/08 14:53:10;;;;;;;44.23;40.87;;;;;;;12.60;100.00;102377.33;1918596;74;39451;-73
2021/11/08 14:58:35;;;;;;;44.83;41.57;;;;;;;12.58;100.00;102382.31;1913259;74;39813;-76
2021/11/08 15:04:04;;;;;;;47.07;43.23;;;;;;;12.51;100.00;102395.63;1886947;74;86895;-76
2021/11/08 15:09:39;;;;;;;48.50;44.80;;;;;;;12.43;100.00;102394.69;1914341;74;39689;-73
2021/11/08 15:15:12;;;;;;;52.20;48.17;;;;;;;12.31;100.00;102396.77;1892478;74;39629;-73
2021/11/08 15:21:00;;;;;;;52.90;48.80;;;;;;;12.12;100.00;102397.62;1889584;75;85374;-69
2021/11/08 15:26:46;;;;;;;52.00;47.60;;;;;;;12.16;100.00;102407.16;1905634;72;86334;-73
2021/11/08 15:32:38;;;;;;;50.73;46.87;;;;;;;12.10;100.00;102412.38;1943957;70;39610;-69
2021/11/08 15:38:31;;;;;;;48.50;44.17;;;;;;;12.17;100.00;102410.23;1933809;71;39653;-70
2021/11/08 15:44:18;;;;;;;48.47;44.83;;;;;;;12.19;100.00;102416.95;1826451;76;86265;-74
2021/11/08 15:50:02;;;;;;;48.80;44.80;;;;;;;12.16;100.00;102421.08;1885633;73;86489;-75
2021/11/08 15:55:46;;;;;;;52.47;48.70;;;;;;;12.19;100.00;102416.37;1907584;74;86358;-71
2021/11/08 16:01:30;;;;;;;45.77;42.07;;;;;;;12.26;100.00;102423.17;1978838;71;39518;-73
2021/11/08 16:07:13;;;;;;;48.73;44.73;;;;;;;12.30;100.00;102436.33;1949009;72;86549;-70
2021/11/08 16:12:58;;;;;;;51.50;47.67;;;;;;;12.38;100.00;102430.00;1877939;75;86565;-72
2021/11/08 16:18:42;;;;;;;46.67;42.90;;;;;;;12.28;100.00;102430.70;1914771;73;86171;-75
2021/11/08 16:24:26;;;;;;;48.23;44.20;;;;;;;12.35;100.00;102432.77;1927395;71;39615;-76
2021/11/08 16:30:13;;;;;;;47.30;43.40;;;;;;;12.28;100.00;102425.98;1896545;74;86013;-70
2021/11/08 16:36:14;;;;;;;50.63;46.57;;;;;;;12.30;100.00;102426.58;1881932;74;86372;-71
2021/11/08 16:41:59;;;;;;;48.70;44.70;;;;;;;12.26;100.00;102424.02;1877731;75;86549;-70
2021/11/08 16:47:41;;;;;;;45.77;41.87;;;;;;;12.24;100.00;102420.63;1948248;72;86386;-79
2021/11/08 16:53:27;;;;;;;48.10;44.10;;;;;;;12.33;100.00;102421.02;1979341;71;39595;-76
2021/11/08 16:59:13;;;;;;;47.13;43.30;;;;;;;12.37;100.00;102426.37;1830799;76;85663;-73
2021/11/08 17:04:58;;;;;;;48.00;44.10;;;;;;;12.33;100.00;102428.84;1874700;75;86125;-70
2021/11/08 17:10:48;;;;;;;49.30;45.23;;;;;;;12.29;100.00;102426.83;1919558;72;86553;-75
2021/11/08 17:16:30;;;;;;;53.27;49.10;;;;;;;12.33;100.00;102437.20;1985652;71;39582;-77
2021/11/08 17:22:14;;;;;;;54.20;49.97;;;;;;;12.28;100.00;102441.84;1831212;76;86305;-77
2021/11/08 17:28:00;;;;;;;54.13;50.03;;;;;;;12.23;100.00;102444.59;1894009;75;85662;-70
2021/11/08 17:33:44;;;;;;;49.10;45.27;;;;;;;12.31;100.00;102446.93;1946081;73;86333;-78
2021/11/08 17:39:29;;;;;;;49.30;45.37;;;;;;;12.31;100.00;102446.93;1984293;71;39507;-73
2021/11/08 17:45:15;;;;;;;49.60;45.73;;;;;;;12.20;100.00;102441.75;1832847;76;85724;-75
2021/11/08 17:51:00;;;;;;;50.80;46.03;;;;;;;12.23;100.00;102443.20;1882247;73;85665;-77
2021/11/08 17:56:44;;;;;;;55.17;50.63;;;;;;;12.29;100.00;102446.33;1918959;74;85563;-78
2021/11/08 18:02:28;;;;;;;54.80;50.40;;;;;;;12.20;100.00;102447.33;1982810;70;40169;-74
2021/11/08 18:08:13;;;;;;;55.87;51.43;;;;;;;12.19;100.00;102448.99;1827781;76;86232;-73
2021/11/08 18:13:59;;;;;;;56.50;51.90;;;;;;;12.12;100.00;102451.95;1866716;75;86786;-77
2021/11/08 18:19:44;;;;;;;55.33;50.97;;;;;;;12.09;100.00;102450.23;1913917;72;86682;-75
2021/11/08 18:32:01;;;;;;;57.23;52.70;;;;;;;12.09;100.00;102464.16;1886650;74;85536;-70
2021/11/08 18:37:45;;;;;;;56.33;51.70;;;;;;;12.06;100.00;102461.34;1910304;74;86469;-70
2021/11/08 18:43:29;;;;;;;55.33;50.93;;;;;;;12.17;100.00;102467.34;1983783;71;39557;-74
2021/11/08 18:49:16;;;;;;;56.43;51.73;;;;;;;12.13;100.00;102472.30;1848823;76;86220;-75
2021/11/08 18:55:00;;;;;;;56.90;52.67;;;;;;;12.06;100.00;102475.82;1893148;73;86552;-70
2021/11/08 19:00:47;;;;;;;58.90;54.03;;;;;;;12.16;100.00;102485.70;1946381;72;86487;-77
2021/11/08 19:06:39;;;;;;;56.73;52.20;;;;;;;12.03;100.00;102488.30;1909782;72;39506;-74
2021/11/08 19:09:05;;;;;;;55.17;50.47;;;;;;;12.05;100.00;102490.84;1858623;73;936643;-75
2021/11/08 19:11:39;;;;;;;56.77;51.97;;;;;;;12.02;100.00;102494.98;1795162;76;940930;-76
2021/11/08 19:14:12;;;;;;;50.87;46.43;;;;;;;11.95;100.00;102488.73;1813142;76;938944;-75
2021/11/08 19:16:43;;;;;;;55.33;50.97;;;;;;;12.03;100.00;102493.88;1824663;77;940878;-76
2021/11/08 19:19:16;;;;;;;56.23;51.67;;;;;;;12.01;100.00;102498.02;1801344;77;940771;-75
2021/11/08 19:21:49;;;;;;;54.07;49.33;;;;;;;11.98;100.00;102498.54;1824934;76;941029;-74
2021/11/08 19:24:21;;;;;;;53.20;48.55;;;;;;;12.08;100.00;102494.50;1801347;76;940844;-74
2021/11/08 19:26:52;;;;;;;51.17;46.43;;;;;;;12.03;100.00;102493.88;1813046;77;940803;-76
2021/11/08 19:29:39;;;;;;;54.03;49.35;;;;;;;12.07;100.00;102493.65;1812328;76;941096;-76
2021/11/08 19:32:02;;;;;;;56.10;51.80;;;;;;;12.12;100.00;102502.63;1813041;77;938925;-74
2021/11/08 19:34:38;;;;;;;51.87;47.17;;;;;;;12.11;100.00;102500.94;1785871;77;940886;-74
2021/11/08 19:43:10;;;;;;;56.13;51.13;;;;;;;12.21;100.00;102489.97;1884959;74;86296;-72
2021/11/08 19:48:54;;;;;;;54.47;49.97;;;;;;;12.16;100.00;102489.88;1873019;75;86265;-71
2021/11/08 19:54:38;;;;;;;52.73;48.27;;;;;;;12.18;100.00;102491.88;1910470;74;86323;-72
2021/11/08 20:00:22;;;;;;;55.97;50.80;;;;;;;12.14;100.00;102490.70;1813453;78;86064;-72
2021/11/08 20:06:06;;;;;;;53.63;48.80;;;;;;;12.17;100.00;102498.54;1809330;78;86836;-72
2021/11/08 20:11:50;;;;;;;53.10;48.43;;;;;;;12.14;100.00;102495.73;1902163;74;86312;-72
2021/11/08 20:17:34;;;;;;;52.83;48.13;;;;;;;12.18;100.00;102492.72;1984925;71;39777;-72
2021/11/08 20:23:23;;;;;;;52.43;47.47;;;;;;;12.24;100.00;102493.07;1840590;76;86270;-72
2021/11/08 20:29:11;;;;;;;55.70;50.90;;;;;;;12.25;100.00;102489.74;1809394;78;86533;-72
2021/11/08 20:41:03;;;;;;;56.63;51.47;;;;;;;12.22;100.00;102491.66;1878167;74;86537;-71
2021/11/08 20:46:54;;;;;;;56.10;51.03;;;;;;;12.24;100.00;102493.07;1915148;72;85745;-73
2021/11/08 20:52:44;;;;;;;54.37;49.57;;;;;;;12.16;100.00;102494.06;1982951;71;39698;-72
2021/11/08 20:58:26;;;;;;;53.97;48.97;;;;;;;12.22;100.00;102495.29;1844885;76;86424;-72
2021/11/08 21:04:16;;;;;;;56.93;51.33;;;;;;;12.21;100.00;102488.56;1807684;78;86155;-73
2021/11/08 21:16:01;;;;;;;53.43;48.47;;;;;;;12.32;100.00;102485.66;1883676;73;85477;-73
2021/11/08 21:21:46;;;;;;;54.53;49.60;;;;;;;12.31;100.00;102485.39;1946720;71;85765;-74
2021/11/08 21:27:31;;;;;;;56.80;51.87;;;;;;;12.29;100.00;102476.98;1976027;71;39754;-72
2021/11/08 21:33:34;;;;;;;55.60;50.40;;;;;;;12.32;100.00;102480.67;1848815;76;86630;-72
2021/11/08 21:39:12;;;;;;;58.73;52.93;;;;;;;12.41;100.00;102488.85;1883625;74;86460;-71
2021/11/08 21:44:57;;;;;;;54.87;49.87;;;;;;;12.48;100.00;102492.31;1884831;75;86997;-68
2021/11/08 21:50:45;;;;;;;56.63;51.30;;;;;;;12.46;100.00;102491.71;1936979;72;85460;-71
2021/11/08 21:56:31;;;;;;;58.13;52.70;;;;;;;12.49;100.00;102492.61;1986150;71;39550;-72
2021/11/08 22:02:18;;;;;;;54.30;49.30;;;;;;;12.54;100.00;102505.20;1844995;76;86918;-73
2021/11/08 22:08:03;;;;;;;56.73;51.93;;;;;;;12.56;100.00;102509.98;1882700;73;86842;-73
2021/11/08 22:13:48;;;;;;;53.57;49.17;;;;;;;12.51;100.00;102505.72;1911732;73;86339;-73
2021/11/08 22:19:38;;;;;;;56.07;50.83;;;;;;;12.51;100.00;102511.84;1976211;71;39506;-75
2021/11/08 22:25:21;;;;;;;58.10;52.70;;;;;;;12.55;100.00;102508.28;1835617;76;86184;-75
2021/11/08 22:31:05;;;;;;;56.87;51.67;;;;;;;12.55;100.00;102509.68;1808780;78;85568;-76
2021/11/08 22:36:50;;;;;;;56.07;51.00;;;;;;;12.64;100.00;102511.47;1908207;74;86273;-73
2021/11/08 22:42:36;;;;;;;55.17;50.27;;;;;;;12.66;100.00;102512.88;1896131;72;39555;-74
2021/11/08 22:48:19;;;;;;;55.17;50.27;;;;;;;12.58;100.00;102507.77;1840047;76;86848;-67
2021/11/08 22:54:03;;;;;;;53.80;48.93;;;;;;;12.69;100.00;102504.02;1870900;75;85479;-74
2021/11/08 22:59:48;;;;;;;53.63;49.13;;;;;;;12.66;100.00;102509.28;1910115;73;86245;-74
2021/11/08 23:05:32;;;;;;;53.70;48.70;;;;;;;12.73;100.00;102507.13;1987109;71;39626;-74
2021/11/08 23:11:17;;;;;;;54.83;50.13;;;;;;;12.72;100.00;102515.20;1839039;76;86358;-74
2021/11/08 23:17:00;;;;;;;57.60;52.57;;;;;;;12.71;100.00;102508.77;1881781;74;86306;-66
2021/11/08 23:22:45;;;;;;;53.87;49.27;;;;;;;12.64;100.00;102519.29;1932113;71;85964;-66
2021/11/08 23:28:29;;;;;;;55.57;50.70;;;;;;;12.78;100.00;102512.78;1986824;71;40143;-70
2021/11/08 23:34:14;;;;;;;50.27;45.77;;;;;;;12.64;100.00;102519.29;1947291;72;86684;-66
2021/11/08 23:39:58;;;;;;;51.37;46.87;;;;;;;12.72;100.00;102509.07;1840299;76;87094;-73
2021/11/08 23:45:45;;;;;;;51.17;46.60;;;;;;;12.79;100.00;102511.10;1927708;73;86445;-66
2021/11/08 23:51:29;;;;;;;50.80;46.50;;;;;;;12.67;100.00;102504.82;1949653;71;39576;-72
2021/11/08 23:57:13;;;;;;;47.53;43.40;;;;;;;12.64;100.00;102510.08;1830451;76;86667;-72
